createdAt,value
2023-04-26T00:00:49.880Z,8.37
2023-04-26T00:03:52.860Z,8.32
2023-04-26T00:06:55.718Z,8.29
2023-04-26T00:09:58.281Z,8.34
2023-04-26T00:13:00.629Z,8.32
2023-04-26T00:16:03.825Z,8.35
2023-04-26T00:19:06.183Z,8.27
2023-04-26T00:22:08.980Z,8.33
2023-04-26T00:25:11.341Z,8.36
2023-04-26T00:28:14.023Z,8.34
2023-04-26T00:31:17.613Z,8.37
2023-04-26T00:34:20.253Z,8.32
2023-04-26T00:37:23.370Z,8.34
2023-04-26T00:40:26.237Z,8.24
2023-04-26T00:43:28.877Z,8.32
2023-04-26T00:46:31.621Z,8.24
2023-04-26T00:49:34.391Z,8.21
2023-04-26T00:52:37.126Z,8.20
2023-04-26T00:55:39.549Z,8.10
2023-04-26T00:58:42.293Z,8.07
2023-04-26T01:01:45.149Z,8.04
2023-04-26T01:04:48.137Z,7.97
2023-04-26T01:07:51.087Z,7.95
2023-04-26T01:10:54.616Z,7.94
2023-04-26T01:13:57.780Z,7.89
2023-04-26T01:17:00.424Z,7.75
2023-04-26T01:20:02.890Z,7.66
2023-04-26T01:23:06.209Z,7.66
2023-04-26T01:26:08.532Z,7.68
2023-04-26T01:29:21.294Z,7.65
2023-04-26T01:32:23.838Z,7.62
2023-04-26T01:35:26.565Z,7.58
2023-04-26T01:38:29.010Z,7.65
2023-04-26T01:41:32.798Z,7.63
2023-04-26T01:44:35.907Z,7.66
2023-04-26T01:47:38.620Z,7.63
2023-04-26T01:50:41.132Z,7.52
2023-04-26T01:53:43.729Z,7.51
2023-04-26T01:56:46.261Z,7.55
2023-04-26T01:59:48.841Z,7.56
2023-04-26T02:02:54.376Z,7.56
2023-04-26T02:05:58.745Z,7.49
2023-04-26T02:09:02.154Z,7.43
2023-04-26T02:12:04.982Z,7.43
2023-04-26T02:15:08.510Z,7.51
2023-04-26T02:18:11.710Z,7.53
2023-04-26T02:21:16.443Z,7.56
2023-04-26T02:24:19.762Z,7.56
2023-04-26T02:27:22.060Z,7.57
2023-04-26T02:30:24.721Z,7.57
2023-04-26T02:33:27.130Z,7.60
2023-04-26T02:36:30.075Z,7.56
2023-04-26T02:39:32.720Z,7.56
2023-04-26T02:42:36.135Z,7.55
2023-04-26T02:45:44.655Z,7.50
2023-04-26T02:48:47.490Z,7.43
2023-04-26T02:51:49.845Z,7.38
2023-04-26T02:54:52.566Z,7.45
2023-04-26T02:57:54.882Z,7.44
2023-04-26T03:01:01.003Z,7.45
2023-04-26T03:04:05.696Z,7.46
2023-04-26T03:07:08.848Z,7.34
2023-04-26T03:10:11.907Z,7.28
2023-04-26T03:13:15.481Z,7.25
2023-04-26T03:16:21.449Z,7.23
2023-04-26T03:19:24.142Z,7.12
2023-04-26T03:22:26.942Z,7.26
2023-04-26T03:25:29.581Z,7.21
2023-04-26T03:28:32.061Z,7.18
2023-04-26T03:31:35.083Z,7.09
2023-04-26T03:34:37.776Z,7.01
2023-04-26T03:37:40.455Z,6.91
2023-04-26T03:40:44.078Z,6.90
2023-04-26T03:43:46.938Z,6.82
2023-04-26T03:46:49.364Z,6.74
2023-04-26T03:49:52.229Z,6.67
2023-04-26T03:52:54.553Z,6.68
2023-04-26T03:55:58.033Z,6.75
2023-04-26T03:59:00.821Z,6.70
2023-04-26T04:02:04.112Z,6.68
2023-04-26T04:05:06.939Z,6.48
2023-04-26T04:08:09.548Z,6.60
2023-04-26T04:11:12.280Z,6.72
2023-04-26T04:14:14.875Z,6.64
2023-04-26T04:17:17.478Z,6.66
2023-04-26T04:20:21.521Z,6.72
2023-04-26T04:23:24.461Z,6.73
2023-04-26T04:26:28.464Z,6.83
2023-04-26T04:29:31.741Z,6.91
2023-04-26T04:32:34.394Z,7.01
2023-04-26T04:35:37.042Z,7.15
2023-04-26T04:38:39.737Z,7.23
2023-04-26T04:41:48.059Z,7.28
2023-04-26T04:44:50.714Z,7.37
2023-04-26T04:47:54.359Z,7.40
2023-04-26T04:50:58.455Z,7.28
2023-04-26T04:54:09.545Z,7.31
2023-04-26T04:57:11.861Z,7.27
2023-04-26T05:00:16.116Z,7.28
2023-04-26T05:03:18.770Z,7.22
2023-04-26T05:06:21.505Z,7.17
2023-04-26T05:09:24.246Z,7.18
2023-04-26T05:12:27.013Z,7.16
2023-04-26T05:15:30.106Z,7.22
2023-04-26T05:18:32.888Z,7.21
2023-04-26T05:21:36.162Z,7.18
2023-04-26T05:24:38.781Z,7.14
2023-04-26T05:27:41.274Z,7.15
2023-04-26T05:30:44.994Z,7.18
2023-04-26T05:33:48.055Z,7.31
2023-04-26T05:36:52.145Z,7.38
2023-04-26T05:39:54.788Z,7.51
2023-04-26T05:42:57.510Z,7.58
2023-04-26T05:46:02.342Z,7.51
2023-04-26T05:49:05.065Z,7.58
2023-04-26T05:52:11.942Z,7.61
2023-04-26T05:55:17.504Z,7.53
2023-04-26T05:58:20.091Z,7.67
2023-04-26T06:01:22.947Z,7.85
2023-04-26T06:04:26.033Z,7.89
2023-04-26T06:07:31.630Z,7.87
2023-04-26T06:10:35.410Z,7.96
2023-04-26T06:13:37.723Z,8.05
2023-04-26T06:16:43.637Z,8.07
2023-04-26T06:19:46.476Z,8.19
2023-04-26T06:22:49.218Z,8.33
2023-04-26T06:25:51.567Z,8.24
2023-04-26T06:28:54.258Z,8.38
2023-04-26T06:31:56.670Z,8.47
2023-04-26T06:34:59.445Z,8.55
2023-04-26T06:38:01.822Z,8.84
2023-04-26T06:41:04.440Z,8.66
2023-04-26T06:44:07.976Z,8.84
2023-04-26T06:47:14.682Z,9.01
2023-04-26T06:50:16.888Z,9.29
2023-04-26T06:53:21.706Z,9.45
2023-04-26T06:56:25.232Z,9.63
2023-04-26T06:59:27.849Z,9.89
2023-04-26T07:02:30.568Z,10.01
2023-04-26T07:05:33.308Z,10.74
2023-04-26T07:08:35.825Z,11.14
2023-04-26T07:11:38.426Z,11.52
2023-04-26T07:14:41.424Z,11.11
2023-04-26T07:17:44.068Z,11.19
2023-04-26T07:20:46.876Z,11.74
2023-04-26T07:23:53.313Z,12.26
2023-04-26T07:26:56.865Z,11.32
2023-04-26T07:30:01.120Z,12.47
2023-04-26T07:33:03.613Z,12.70
2023-04-26T07:36:06.517Z,12.09
2023-04-26T07:39:10.348Z,11.97
2023-04-26T07:42:12.899Z,12.17
2023-04-26T07:45:15.834Z,13.14
2023-04-26T07:48:19.639Z,12.86
2023-04-26T07:51:22.046Z,12.04
2023-04-26T07:54:24.629Z,13.24
2023-04-26T07:57:26.907Z,14.06
2023-04-26T08:00:30.114Z,13.81
2023-04-26T08:03:33.192Z,13.98
2023-04-26T08:06:36.148Z,13.92
2023-04-26T08:09:38.701Z,14.19
2023-04-26T08:12:46.789Z,15.16
2023-04-26T08:15:49.348Z,15.50
2023-04-26T08:18:51.963Z,17.04
2023-04-26T08:21:54.821Z,14.72
2023-04-26T08:24:57.173Z,14.79
2023-04-26T08:27:59.736Z,13.49
2023-04-26T08:31:02.110Z,13.62
2023-04-26T08:34:04.920Z,14.66
2023-04-26T08:37:11.649Z,14.27
2023-04-26T08:40:21.222Z,13.87
2023-04-26T08:43:23.502Z,14.36
2023-04-26T08:46:27.111Z,14.91
2023-04-26T08:49:43.564Z,15.61
2023-04-26T08:52:47.517Z,15.65
2023-04-26T08:55:50.686Z,13.42
2023-04-26T08:58:53.805Z,14.67
2023-04-26T09:01:57.301Z,15.32
2023-04-26T09:05:00.247Z,15.12
2023-04-26T09:08:05.299Z,13.85
2023-04-26T09:11:07.913Z,15.75
2023-04-26T09:14:10.298Z,16.06
2023-04-26T09:17:25.202Z,16.49
2023-04-26T09:20:29.034Z,15.50
2023-04-26T09:23:32.188Z,14.95
2023-04-26T09:26:34.607Z,16.95
2023-04-26T09:29:37.217Z,15.09
2023-04-26T09:32:48.845Z,17.32
2023-04-26T09:35:51.695Z,16.04
2023-04-26T09:38:54.647Z,16.23
2023-04-26T09:41:57.661Z,17.00
2023-04-26T09:45:06.369Z,16.30
2023-04-26T09:48:30.403Z,17.30
2023-04-26T09:51:32.872Z,17.61
2023-04-26T09:54:42.322Z,15.71
2023-04-26T09:57:44.779Z,15.39
2023-04-26T10:00:49.351Z,14.53
2023-04-26T10:03:52.760Z,15.22
2023-04-26T10:06:55.417Z,15.04
2023-04-26T10:09:58.517Z,14.94
2023-04-26T10:13:00.984Z,14.72
2023-04-26T10:16:04.310Z,14.10
2023-04-26T10:19:06.795Z,13.92
2023-04-26T10:22:14.938Z,13.82
2023-04-26T10:25:17.288Z,13.55
2023-04-26T10:28:44.955Z,13.87
2023-04-26T10:32:09.155Z,14.02
2023-04-26T10:35:31.044Z,14.99
2023-04-26T10:38:38.076Z,14.75
2023-04-26T10:41:45.370Z,15.71
2023-04-26T10:44:57.682Z,14.73
2023-04-26T10:48:19.960Z,16.39
2023-04-26T10:51:22.794Z,15.68
2023-04-26T10:54:46.010Z,13.75
2023-04-26T10:57:52.060Z,16.96
2023-04-26T11:01:04.182Z,17.26
2023-04-26T11:04:10.901Z,17.35
2023-04-26T11:07:14.026Z,16.22
2023-04-26T11:10:23.172Z,15.25
2023-04-26T11:13:25.446Z,14.09
2023-04-26T11:16:28.974Z,14.28
2023-04-26T11:19:32.018Z,15.61
2023-04-26T11:22:34.849Z,17.87
2023-04-26T11:25:38.989Z,16.87
2023-04-26T11:28:44.497Z,16.05
2023-04-26T11:31:57.297Z,14.34
2023-04-26T11:35:00.963Z,13.02
2023-04-26T11:38:06.272Z,12.83
2023-04-26T11:41:10.523Z,13.24
2023-04-26T11:44:13.123Z,13.21
2023-04-26T11:47:15.806Z,15.04
2023-04-26T11:50:18.793Z,15.53
2023-04-26T11:53:21.777Z,15.87
2023-04-26T11:56:25.218Z,14.97
2023-04-26T11:59:32.252Z,15.58
2023-04-26T12:02:35.714Z,15.63
2023-04-26T12:05:38.979Z,14.54
2023-04-26T12:08:41.523Z,13.98
2023-04-26T12:12:10.149Z,14.52
2023-04-26T12:15:13.952Z,14.78
2023-04-26T12:18:18.419Z,18.08
2023-04-26T12:21:20.929Z,16.21
2023-04-26T12:24:25.191Z,14.65
2023-04-26T12:27:27.718Z,14.04
2023-04-26T12:30:31.677Z,13.47
2023-04-26T12:33:37.312Z,12.79
2023-04-26T12:36:46.429Z,13.34
2023-04-26T12:39:48.668Z,13.77
2023-04-26T12:42:51.968Z,15.86
2023-04-26T12:45:55.457Z,18.64
2023-04-26T12:48:58.136Z,16.65
2023-04-26T12:52:00.510Z,15.35
2023-04-26T12:55:05.090Z,14.60
2023-04-26T12:58:07.565Z,14.49
2023-04-26T13:01:11.347Z,14.64
2023-04-26T13:04:13.842Z,17.24
2023-04-26T13:07:17.328Z,19.75
2023-04-26T13:10:20.060Z,17.93
2023-04-26T13:13:32.297Z,15.40
2023-04-26T13:16:42.353Z,15.00
2023-04-26T13:19:44.957Z,14.29
2023-04-26T13:22:51.520Z,14.52
2023-04-26T13:25:54.117Z,18.49
2023-04-26T13:28:56.648Z,18.86
2023-04-26T13:31:59.603Z,18.51
2023-04-26T13:35:02.723Z,21.01
2023-04-26T13:38:05.444Z,20.62
2023-04-26T13:41:07.915Z,21.06
2023-04-26T13:44:11.124Z,19.27
2023-04-26T13:47:13.443Z,16.50
2023-04-26T13:50:16.386Z,14.72
2023-04-26T13:53:19.982Z,13.98
2023-04-26T13:56:24.543Z,13.10
2023-04-26T13:59:28.447Z,12.99
2023-04-26T14:02:31.438Z,12.95
2023-04-26T14:05:34.627Z,12.80
2023-04-26T14:08:37.467Z,14.61
2023-04-26T14:11:40.200Z,15.03
2023-04-26T14:14:42.536Z,14.67
2023-04-26T14:17:47.083Z,14.97
2023-04-26T14:20:49.660Z,13.99
2023-04-26T14:23:52.432Z,13.04
2023-04-26T14:26:54.657Z,12.76
2023-04-26T14:29:57.376Z,12.22
2023-04-26T14:32:59.811Z,12.42
2023-04-26T14:36:02.378Z,12.67
2023-04-26T14:39:04.667Z,12.85
2023-04-26T14:42:07.583Z,13.29
2023-04-26T14:45:10.101Z,12.78
2023-04-26T14:48:13.018Z,12.74
2023-04-26T14:51:15.496Z,12.32
2023-04-26T14:54:18.322Z,12.27
2023-04-26T14:57:20.677Z,12.06
2023-04-26T15:00:25.439Z,11.79
2023-04-26T15:03:28.203Z,12.05
2023-04-26T15:06:32.144Z,11.74
2023-04-26T15:09:34.538Z,11.99
2023-04-26T15:12:37.569Z,12.15
2023-04-26T15:15:39.811Z,12.20
2023-04-26T15:18:42.676Z,12.25
2023-04-26T15:21:45.050Z,12.16
2023-04-26T15:24:49.601Z,11.83
2023-04-26T15:27:51.985Z,11.76
2023-04-26T15:31:04.294Z,11.61
2023-04-26T15:34:06.732Z,11.33
2023-04-26T15:37:10.166Z,11.25
2023-04-26T15:40:12.678Z,11.28
2023-04-26T15:43:16.843Z,11.24
2023-04-26T15:46:19.132Z,11.19
2023-04-26T15:49:23.308Z,11.32
2023-04-26T15:52:25.887Z,11.66
2023-04-26T15:55:28.516Z,11.92
2023-04-26T15:58:30.906Z,11.76
2023-04-26T16:01:34.400Z,11.71
2023-04-26T16:04:37.306Z,11.62
2023-04-26T16:07:40.233Z,11.71
2023-04-26T16:10:42.829Z,12.00
2023-04-26T16:13:45.274Z,12.76
2023-04-26T16:16:47.886Z,15.53
2023-04-26T16:19:50.138Z,15.91
2023-04-26T16:22:53.023Z,13.44
2023-04-26T16:25:55.340Z,12.41
2023-04-26T16:28:57.949Z,12.05
2023-04-26T16:32:00.554Z,11.58
2023-04-26T16:35:03.439Z,11.60
2023-04-26T16:38:05.859Z,11.48
2023-04-26T16:41:08.564Z,11.34
2023-04-26T16:44:11.285Z,11.27
2023-04-26T16:47:13.849Z,11.26
2023-04-26T16:50:21.345Z,11.26
2023-04-26T16:53:23.988Z,10.96
2023-04-26T16:56:26.743Z,10.90
2023-04-26T16:59:29.390Z,10.94
2023-04-26T17:02:32.117Z,10.68
2023-04-26T17:05:38.776Z,10.65
2023-04-26T17:08:41.345Z,10.57
2023-04-26T17:11:44.859Z,10.50
2023-04-26T17:14:47.202Z,10.49
2023-04-26T17:17:50.752Z,10.53
2023-04-26T17:20:53.666Z,10.45
2023-04-26T17:23:56.173Z,10.42
2023-04-26T17:26:59.820Z,10.33
2023-04-26T17:30:02.491Z,10.23
2023-04-26T17:33:07.407Z,10.13
2023-04-26T17:36:10.285Z,10.15
2023-04-26T17:39:12.774Z,10.06
2023-04-26T17:42:15.376Z,9.98
2023-04-26T17:45:17.817Z,9.93
2023-04-26T17:48:20.303Z,10.00
2023-04-26T17:51:22.860Z,9.89
2023-04-26T17:54:25.468Z,9.93
2023-04-26T17:57:27.642Z,9.91
2023-04-26T18:00:30.177Z,10.11
2023-04-26T18:03:35.815Z,10.01
2023-04-26T18:06:38.273Z,9.92
2023-04-26T18:09:41.601Z,9.86
2023-04-26T18:12:44.024Z,9.65
2023-04-26T18:15:47.059Z,9.61
2023-04-26T18:18:49.786Z,9.57
2023-04-26T18:21:53.599Z,9.42
2023-04-26T18:24:55.885Z,9.41
2023-04-26T18:27:58.457Z,9.35
2023-04-26T18:31:00.963Z,9.29
2023-04-26T18:34:03.608Z,9.13
2023-04-26T18:37:06.143Z,9.16
2023-04-26T18:40:09.508Z,9.08
2023-04-26T18:43:12.154Z,9.05
2023-04-26T18:46:14.764Z,9.04
2023-04-26T18:49:17.454Z,9.08
2023-04-26T18:52:20.212Z,8.97
2023-04-26T18:55:22.954Z,9.00
2023-04-26T18:58:25.902Z,8.94
2023-04-26T19:01:28.601Z,8.87
2023-04-26T19:04:31.351Z,8.74
2023-04-26T19:07:33.719Z,8.69
2023-04-26T19:10:36.878Z,8.68
2023-04-26T19:13:42.790Z,8.57
2023-04-26T19:16:45.384Z,8.51
2023-04-26T19:19:47.856Z,8.46
2023-04-26T19:22:50.880Z,8.40
2023-04-26T19:25:53.338Z,8.27
2023-04-26T19:28:56.272Z,8.27
2023-04-26T19:32:00.139Z,8.24
2023-04-26T19:35:04.830Z,8.23
2023-04-26T19:38:07.259Z,8.12
2023-04-26T19:41:09.863Z,8.00
2023-04-26T19:44:12.923Z,7.83
2023-04-26T19:47:16.095Z,7.79
2023-04-26T19:50:18.556Z,7.69
2023-04-26T19:53:21.178Z,7.65
2023-04-26T19:56:24.058Z,7.59
2023-04-26T19:59:27.373Z,7.46
2023-04-26T20:02:29.962Z,7.58
2023-04-26T20:05:33.773Z,7.36
2023-04-26T20:08:36.332Z,7.36
2023-04-26T20:11:39.380Z,7.53
2023-04-26T20:14:41.760Z,7.56
2023-04-26T20:17:44.474Z,7.57
2023-04-26T20:20:48.069Z,7.50
2023-04-26T20:23:50.765Z,7.52
2023-04-26T20:26:53.551Z,7.40
2023-04-26T20:29:56.485Z,7.35
2023-04-26T20:32:59.614Z,7.28
2023-04-26T20:36:02.317Z,7.18
2023-04-26T20:39:05.248Z,7.29
2023-04-26T20:42:18.479Z,7.19
2023-04-26T20:45:20.706Z,7.07
2023-04-26T20:48:24.186Z,7.12
2023-04-26T20:51:26.886Z,6.95
2023-04-26T20:54:29.509Z,6.77
2023-04-26T20:57:31.859Z,6.66
2023-04-26T21:00:34.635Z,6.57
2023-04-26T21:03:39.168Z,6.62
2023-04-26T21:06:41.962Z,6.52
2023-04-26T21:09:44.272Z,6.33
2023-04-26T21:12:47.066Z,6.19
2023-04-26T21:15:49.429Z,6.24
2023-04-26T21:18:52.564Z,6.13
2023-04-26T21:21:54.862Z,6.17
2023-04-26T21:24:57.672Z,6.01
2023-04-26T21:28:01.227Z,5.86
2023-04-26T21:31:05.491Z,5.74
2023-04-26T21:34:07.784Z,5.81
2023-04-26T21:37:10.994Z,5.78
2023-04-26T21:40:13.552Z,5.66
2023-04-26T21:43:20.124Z,5.57
2023-04-26T21:46:22.435Z,5.55
2023-04-26T21:49:25.944Z,5.47
2023-04-26T21:52:28.619Z,5.47
2023-04-26T21:55:31.409Z,5.34
2023-04-26T21:58:33.984Z,5.32
2023-04-26T22:01:36.638Z,5.22
2023-04-26T22:04:39.271Z,5.13
2023-04-26T22:07:41.702Z,5.06
2023-04-26T22:10:44.386Z,5.34
2023-04-26T22:13:46.892Z,5.30
2023-04-26T22:16:49.562Z,5.32
2023-04-26T22:19:52.230Z,5.35
2023-04-26T22:22:54.931Z,5.43
2023-04-26T22:25:59.575Z,5.24
2023-04-26T22:29:02.714Z,5.22
2023-04-26T22:32:05.525Z,5.18
2023-04-26T22:35:08.220Z,5.22
2023-04-26T22:38:10.612Z,5.11
2023-04-26T22:41:13.329Z,5.05
2023-04-26T22:44:15.776Z,4.99
2023-04-26T22:47:18.654Z,4.93
2023-04-26T22:50:21.607Z,4.87
2023-04-26T22:53:24.215Z,4.85
2023-04-26T22:56:26.916Z,4.89
2023-04-26T22:59:29.707Z,4.82
2023-04-26T23:02:32.541Z,4.74
2023-04-26T23:05:36.493Z,4.75
2023-04-26T23:08:38.883Z,4.67
2023-04-26T23:11:41.536Z,4.64
2023-04-26T23:14:43.839Z,4.64
2023-04-26T23:17:46.704Z,4.56
2023-04-26T23:20:49.007Z,4.55
2023-04-26T23:23:51.803Z,4.49
2023-04-26T23:26:54.107Z,4.56
2023-04-26T23:29:59.110Z,4.51
2023-04-26T23:33:01.721Z,4.53
2023-04-26T23:36:04.562Z,4.58
2023-04-26T23:39:07.228Z,4.61
2023-04-26T23:42:09.704Z,4.74
2023-04-26T23:45:12.002Z,4.73
2023-04-26T23:48:15.320Z,4.63
2023-04-26T23:51:17.707Z,4.66
2023-04-26T23:54:20.400Z,4.93
2023-04-26T23:57:22.797Z,4.92
